Time;durP1;ratioP1;P1;durP2;ratioP2;P2;SDS_P1;SDS_P2;PMS_P1;PMS_P2;Temp;Humidity;BMP_temperature;BMP_pressure;BME280_temperature;BME280_humidity;BME280_pressure;Samples;Min_cycle;Max_cycle;Signal;HPM_P1;HPM_P2
2022/10/10 00:01:57;;;;;;;5.25;3.13;;;9.20;99.90;;;;;;20895326;28;20091;-54
2022/10/10 00:12:00;;;;;;;6.93;3.17;;;9.20;99.90;;;;;;20897053;28;20041;-59
2022/10/10 00:22:02;;;;;;;5.05;2.63;;;9.10;99.90;;;;;;20896173;28;20103;-59
2022/10/10 00:32:05;;;;;;;5.45;3.10;;;9.10;99.90;;;;;;20894304;28;20029;-52
2022/10/10 00:42:11;;;;;;;8.75;3.08;;;9.10;99.90;;;;;;20894532;28;20045;-51
2022/10/10 00:52:14;;;;;;;5.10;2.80;;;9.10;99.90;;;;;;20894032;28;20033;-52
2022/10/10 01:02:16;;;;;;;5.43;3.03;;;9.20;99.90;;;;;;20876255;28;20033;-49
2022/10/10 01:12:22;;;;;;;11.43;3.00;;;9.30;99.90;;;;;;20892567;28;20405;-53
2022/10/10 01:22:30;;;;;;;6.55;3.03;;;9.40;99.90;;;;;;20885740;28;20029;-59
2022/10/10 01:32:46;;;;;;;7.10;2.92;;;9.40;99.90;;;;;;20876019;28;20037;-52
2022/10/10 01:43:05;;;;;;;4.40;2.88;;;9.20;99.90;;;;;;20909002;28;20048;-54
2022/10/10 01:53:08;;;;;;;7.68;3.45;;;9.00;99.90;;;;;;20890223;28;20033;-54
2022/10/10 02:03:36;;;;;;;7.15;3.50;;;8.90;99.90;;;;;;20872059;28;20095;-60
2022/10/10 02:13:44;;;;;;;3.70;3.17;;;8.90;99.90;;;;;;20898832;28;20037;-59
2022/10/10 02:23:51;;;;;;;9.23;3.38;;;9.00;99.90;;;;;;20906242;28;20110;-55
2022/10/10 02:34:05;;;;;;;7.90;3.20;;;9.10;99.90;;;;;;20905287;28;20037;-54
2022/10/10 02:44:10;;;;;;;5.40;2.80;;;9.20;99.90;;;;;;20904058;28;20041;-50
2022/10/10 02:54:15;;;;;;;4.10;3.00;;;9.30;99.90;;;;;;20887106;28;20099;-52
2022/10/10 03:04:18;;;;;;;7.78;2.95;;;9.30;99.90;;;;;;20870941;28;20033;-54
2022/10/10 03:14:20;;;;;;;7.50;3.45;;;9.30;99.90;;;;;;20886984;28;20482;-51
2022/10/10 03:24:23;;;;;;;7.35;3.60;;;9.30;99.90;;;;;;20893089;28;20106;-52
2022/10/10 03:34:26;;;;;;;5.93;3.50;;;9.30;99.90;;;;;;20900547;28;20099;-60
2022/10/10 03:44:29;;;;;;;7.60;3.60;;;9.20;99.90;;;;;;20883166;28;20036;-53
2022/10/10 03:54:32;;;;;;;7.75;3.50;;;9.10;99.90;;;;;;20896123;28;20037;-53
2022/10/10 04:04:35;;;;;;;4.70;3.63;;;9.10;99.90;;;;;;20873794;28;20037;-50
2022/10/10 04:14:37;;;;;;;10.02;4.22;;;9.00;99.90;;;;;;20897252;28;20114;-50
2022/10/10 04:24:40;;;;;;;8.77;4.50;;;8.90;99.90;;;;;;20896747;28;20530;-51
2022/10/10 04:34:43;;;;;;;8.50;5.18;;;8.90;99.90;;;;;;20876773;28;20096;-51
2022/10/10 04:44:45;;;;;;;7.88;4.75;;;8.90;99.90;;;;;;20896149;28;20041;-53
2022/10/10 04:54:48;;;;;;;7.88;4.97;;;8.90;99.90;;;;;;20895520;28;20086;-53
2022/10/10 05:04:51;;;;;;;7.00;4.95;;;8.90;99.90;;;;;;20909721;28;20086;-52
2022/10/10 05:14:53;;;;;;;8.57;5.30;;;9.00;99.90;;;;;;20892510;28;20040;-53
2022/10/10 05:24:58;;;;;;;10.68;4.75;;;9.00;99.90;;;;;;20720248;28;20050;-52
2022/10/10 05:35:00;;;;;;;6.95;4.68;;;9.00;99.90;;;;;;20735553;28;20054;-59
2022/10/10 05:45:03;;;;;;;6.13;4.47;;;8.90;99.90;;;;;;20718438;28;20038;-54
2022/10/10 05:55:06;;;;;;;8.20;4.55;;;8.70;99.90;;;;;;20719048;28;20155;-60
2022/10/10 06:05:10;;;;;;;7.97;4.38;;;8.50;99.90;;;;;;20808562;28;20045;-54
2022/10/10 06:15:13;;;;;;;7.32;3.80;;;8.50;99.90;;;;;;20857140;28;20059;-54
2022/10/10 06:25:16;;;;;;;6.55;3.70;;;8.80;99.90;;;;;;20888954;28;20033;-59
2022/10/10 06:35:19;;;;;;;7.85;4.05;;;9.10;99.90;;;;;;20814951;28;20107;-60
2022/10/10 06:45:23;;;;;;;7.95;4.18;;;9.30;99.90;;;;;;20856217;28;20512;-52
2022/10/10 06:55:26;;;;;;;5.60;3.22;;;9.60;99.90;;;;;;20888319;28;20036;-60
2022/10/10 07:05:29;;;;;;;8.70;3.65;;;9.90;99.90;;;;;;20902550;28;20071;-58
2022/10/10 07:15:32;;;;;;;4.82;3.40;;;10.20;99.90;;;;;;20902919;28;20028;-52
2022/10/10 07:25:38;;;;;;;5.30;3.17;;;10.40;99.90;;;;;;20884449;28;20543;-53
2022/10/10 07:35:41;;;;;;;4.90;2.83;;;10.70;99.90;;;;;;20900760;28;20103;-51
2022/10/10 07:45:44;;;;;;;5.60;3.13;;;10.90;99.90;;;;;;20901470;28;20377;-60
2022/10/10 07:55:46;;;;;;;4.72;3.58;;;11.40;99.90;;;;;;20899512;28;20500;-60
2022/10/10 08:05:50;;;;;;;9.13;3.95;;;12.00;99.90;;;;;;20897940;28;20090;-50
2022/10/10 08:15:53;;;;;;;4.82;3.42;;;12.40;99.90;;;;;;20880077;28;20061;-53
2022/10/10 08:26:00;;;;;;;4.47;3.17;;;12.70;99.90;;;;;;20896656;28;20049;-60
2022/10/10 08:36:13;;;;;;;4.13;3.03;;;13.00;99.90;;;;;;20909369;28;20513;-51
2022/10/10 08:46:47;;;;;;;3.70;2.90;;;13.10;99.90;;;;;;20894821;28;20100;-49
2022/10/10 08:56:51;;;;;;;3.88;3.08;;;13.20;99.90;;;;;;20894004;28;20063;-46
2022/10/10 09:07:13;;;;;;;9.18;3.50;;;13.40;99.90;;;;;;20907003;28;20410;-49
2022/10/10 09:17:38;;;;;;;4.78;3.17;;;13.90;99.90;;;;;;20814629;28;20029;-50
2022/10/10 09:27:52;;;;;;;5.03;2.67;;;14.40;99.90;;;;;;20891261;28;20410;-48
2022/10/10 09:38:10;;;;;;;4.75;2.80;;;14.80;99.90;;;;;;20891027;28;20102;-48
2022/10/10 09:48:13;;;;;;;8.02;3.17;;;15.30;99.90;;;;;;20874338;28;20033;-51
2022/10/10 09:58:26;;;;;;;4.43;2.78;;;15.50;99.90;;;;;;20890531;28;20033;-50
2022/10/10 10:08:35;;;;;;;5.95;3.08;;;15.50;99.90;;;;;;20890126;28;20038;-49
2022/10/10 10:18:44;;;;;;;5.03;3.10;;;15.70;99.90;;;;;;20889850;28;20041;-48
2022/10/10 10:28:48;;;;;;;5.20;3.20;;;16.10;99.90;;;;;;20872736;28;20041;-59
2022/10/10 10:39:32;;;;;;;6.82;3.80;;;16.20;99.90;;;;;;20904188;28;20053;-59
2022/10/10 10:49:52;;;;;;;10.07;3.00;;;16.40;99.90;;;;;;20903480;28;20063;-50
2022/10/10 11:00:16;;;;;;;5.85;3.33;;;16.80;99.90;;;;;;20903201;28;20122;-59
2022/10/10 11:10:37;;;;;;;6.03;3.42;;;17.00;99.90;;;;;;20918741;28;20091;-49
2022/10/10 11:20:46;;;;;;;5.60;3.88;;;17.30;99.90;;;;;;20901966;28;20041;-59
2022/10/10 11:30:57;;;;;;;;;;;17.60;99.90;;;;;;20901606;28;20036;-48
2022/10/10 11:41:24;;;;;;;6.32;4.72;;;17.30;99.90;;;;;;20917693;28;19974;-58
2022/10/10 11:51:37;;;;;;;7.20;3.90;;;17.10;99.90;;;;;;20899512;28;20033;-49
2022/10/10 12:01:49;;;;;;;6.90;4.70;;;17.30;99.90;;;;;;20898661;28;20086;-57
2022/10/10 12:12:00;;;;;;;6.40;4.53;;;17.20;99.90;;;;;;20897975;28;20103;-47
2022/10/10 12:22:10;;;;;;;4.85;2.83;;;17.20;99.90;;;;;;20897799;28;20547;-59
2022/10/10 12:32:12;;;;;;;7.55;4.07;;;17.40;99.90;;;;;;20896127;28;20033;-59
2022/10/10 12:42:28;;;;;;;9.13;5.00;;;17.50;99.90;;;;;;20878633;28;20052;-49
2022/10/10 12:52:47;;;;;;;6.35;4.05;;;16.80;99.90;;;;;;20894178;28;20075;-51
2022/10/10 13:03:00;;;;;;;9.73;3.28;;;16.60;99.90;;;;;;20892855;28;20095;-52
2022/10/10 13:13:06;;;;;;;5.10;3.10;;;16.50;99.90;;;;;;20893841;28;20037;-48
2022/10/10 13:23:13;;;;;;;7.65;3.00;;;16.90;99.90;;;;;;20891962;28;20041;-52
2022/10/10 13:33:27;;;;;;;6.45;4.75;;;16.60;99.90;;;;;;20891666;28;20036;-51
2022/10/10 13:43:32;;;;;;;6.25;4.43;;;15.90;99.90;;;;;;20890786;28;20041;-52
2022/10/10 13:53:43;;;;;;;7.90;5.05;;;15.10;99.90;;;;;;20890513;28;20033;-58
2022/10/10 14:03:50;;;;;;;6.25;5.00;;;14.50;99.90;;;;;;20902557;28;20041;-50
2022/10/10 14:14:08;;;;;;;6.70;5.18;;;14.30;99.90;;;;;;20889495;28;20452;-57
2022/10/10 14:24:10;;;;;;;7.68;5.40;;;14.20;99.90;;;;;;20905943;28;20098;-58
2022/10/10 14:34:14;;;;;;;10.40;6.15;;;14.30;99.90;;;;;;20921337;28;20029;-47
2022/10/10 14:44:16;;;;;;;7.57;5.63;;;14.30;99.90;;;;;;20904633;28;20378;-49
2022/10/10 14:54:19;;;;;;;7.80;5.95;;;14.20;99.90;;;;;;20903869;28;20040;-47
2022/10/10 15:04:21;;;;;;;8.85;5.30;;;14.10;99.90;;;;;;20902909;28;20033;-51
2022/10/10 15:14:24;;;;;;;9.50;5.90;;;14.00;99.90;;;;;;20888594;28;20037;-48
2022/10/10 15:24:28;;;;;;;8.95;5.30;;;13.70;99.90;;;;;;20900459;28;20037;-58
2022/10/10 15:34:30;;;;;;;7.60;4.93;;;13.30;99.90;;;;;;20901125;28;20083;-49
2022/10/10 15:44:33;;;;;;;7.53;5.60;;;12.90;99.90;;;;;;20899923;28;20033;-50
2022/10/10 15:54:35;;;;;;;9.20;5.55;;;12.60;99.90;;;;;;20899137;28;20079;-49
2022/10/10 16:04:38;;;;;;;8.13;6.30;;;12.40;99.90;;;;;;20898310;28;20086;-49
2022/10/10 16:14:40;;;;;;;8.77;6.00;;;12.20;99.90;;;;;;20897778;28;20071;-52
2022/10/10 16:24:43;;;;;;;7.85;6.00;;;12.00;99.90;;;;;;20913844;28;20504;-46
2022/10/10 16:34:46;;;;;;;9.57;5.53;;;11.90;99.90;;;;;;20898665;28;20491;-57
2022/10/10 16:44:48;;;;;;;8.20;5.60;;;11.60;99.90;;;;;;20896262;28;20047;-57
2022/10/10 16:54:51;;;;;;;10.38;6.25;;;11.40;99.90;;;;;;20894321;28;20063;-49
2022/10/10 17:04:56;;;;;;;14.85;7.50;;;11.20;99.90;;;;;;20877197;28;20029;-57
2022/10/10 17:14:58;;;;;;;8.68;7.00;;;11.00;99.90;;;;;;20892772;28;20037;-51
2022/10/10 17:25:02;;;;;;;11.23;7.82;;;10.80;99.90;;;;;;20878135;28;20045;-56
2022/10/10 17:35:05;;;;;;;12.68;8.13;;;10.60;99.90;;;;;;20891277;28;20460;-45
2022/10/10 17:45:08;;;;;;;12.38;8.00;;;10.50;99.90;;;;;;20874071;28;20478;-57
2022/10/10 17:55:10;;;;;;;11.85;8.50;;;10.40;99.90;;;;;;20887759;28;20037;-48
2022/10/10 18:05:13;;;;;;;9.35;7.53;;;10.30;99.90;;;;;;20871185;28;20106;-57
2022/10/10 18:15:16;;;;;;;12.73;8.80;;;10.30;99.90;;;;;;20889946;28;20494;-53
2022/10/10 18:25:22;;;;;;;11.05;8.60;;;10.30;99.90;;;;;;20889788;28;20068;-49
2022/10/10 18:35:24;;;;;;;13.95;9.57;;;10.20;99.90;;;;;;20888071;28;20353;-59
2022/10/10 18:45:27;;;;;;;15.23;9.40;;;10.10;99.90;;;;;;20888746;28;20037;-55
2022/10/10 18:55:30;;;;;;;14.38;9.18;;;10.00;99.90;;;;;;20912934;28;20033;-60
2022/10/10 19:05:38;;;;;;;12.73;9.30;;;9.80;99.90;;;;;;20902470;28;20033;-51
2022/10/10 19:15:40;;;;;;;14.43;9.30;;;9.40;99.90;;;;;;20883817;28;20091;-50
2022/10/10 19:25:45;;;;;;;15.02;8.75;;;8.90;99.90;;;;;;20882499;28;20434;-51
2022/10/10 19:35:47;;;;;;;17.73;11.02;;;8.50;99.90;;;;;;20894568;28;20049;-51
2022/10/10 19:45:50;;;;;;;14.30;9.85;;;8.20;99.90;;;;;;20900044;28;20517;-51
2022/10/10 19:56:09;;;;;;;17.90;10.93;;;8.10;99.90;;;;;;20905704;28;20094;-60
2022/10/10 20:06:12;;;;;;;17.33;11.30;;;8.00;99.90;;;;;;20881203;28;20041;-69
2022/10/10 20:16:15;;;;;;;14.25;9.43;;;7.90;99.90;;;;;;20898295;28;20063;-63
2022/10/10 20:26:21;;;;;;;11.40;8.18;;;7.90;99.90;;;;;;20896633;28;20029;-63
2022/10/10 20:36:27;;;;;;;19.65;11.77;;;7.80;99.90;;;;;;20847240;28;20075;-61
2022/10/10 20:46:33;;;;;;;16.25;11.38;;;7.70;99.90;;;;;;20878933;28;20082;-62
2022/10/10 20:56:36;;;;;;;14.80;10.27;;;7.60;99.90;;;;;;20894373;28;20037;-61
2022/10/10 21:06:41;;;;;;;12.63;9.23;;;7.50;99.90;;;;;;20861528;28;20037;-61
2022/10/10 21:16:44;;;;;;;20.70;11.15;;;7.60;99.90;;;;;;20892233;28;20095;-59
2022/10/10 21:26:49;;;;;;;16.95;11.10;;;7.70;99.90;;;;;;20892214;28;20032;-60
2022/10/10 21:36:51;;;;;;;12.32;9.65;;;7.80;99.90;;;;;;20889293;28;20114;-61
2022/10/10 21:46:54;;;;;;;15.05;9.40;;;7.70;99.90;;;;;;20907591;28;20036;-58
2022/10/10 21:56:56;;;;;;;14.32;9.40;;;7.70;99.90;;;;;;20890503;28;20555;-58
2022/10/10 22:06:59;;;;;;;14.05;8.88;;;7.70;99.90;;;;;;20890733;28;20037;-58
2022/10/10 22:17:01;;;;;;;16.55;10.15;;;7.60;99.90;;;;;;20887750;28;20033;-56
2022/10/10 22:27:05;;;;;;;13.68;9.88;;;7.50;99.90;;;;;;20904494;28;20025;-57
2022/10/10 22:37:07;;;;;;;16.63;10.07;;;7.90;99.90;;;;;;21128577;22;20087;-49
2022/10/10 22:47:10;;;;;;;12.55;8.45;;;7.90;99.90;;;;;;20825940;28;20080;-60
2022/10/10 22:57:14;;;;;;;12.05;7.03;;;7.80;99.90;;;;;;20888201;28;20055;-52
2022/10/10 23:07:19;;;;;;;10.73;7.47;;;7.90;99.90;;;;;;20904801;28;20052;-53
2022/10/10 23:17:22;;;;;;;13.43;7.10;;;7.90;99.90;;;;;;20904819;28;20093;-50
2022/10/10 23:27:25;;;;;;;11.43;6.70;;;7.60;99.90;;;;;;20903601;28;20646;-50
2022/10/10 23:37:28;;;;;;;9.43;6.90;;;7.70;99.90;;;;;;20884185;28;20518;-51
2022/10/10 23:47:45;;;;;;;9.93;6.50;;;7.60;99.90;;;;;;21233495;27;20742;-49
2022/10/10 23:57:48;;;;;;;9.32;6.72;;;7.60;99.90;;;;;;21058034;28;20025;-46
